createdAt,value
2023-02-14T00:01:20.756Z,3.74
2023-02-14T00:03:49.444Z,3.81
2023-02-14T00:06:16.925Z,3.79
2023-02-14T00:08:47.240Z,3.79
2023-02-14T00:11:14.577Z,3.81
2023-02-14T00:14:02.211Z,3.83
2023-02-14T00:16:29.605Z,3.71
2023-02-14T00:19:03.404Z,3.73
2023-02-14T00:21:37.604Z,3.78
2023-02-14T00:24:09.042Z,3.89
2023-02-14T00:26:38.789Z,3.79
2023-02-14T00:29:13.308Z,3.75
2023-02-14T00:31:41.753Z,3.87
2023-02-14T00:34:10.354Z,3.97
2023-02-14T00:36:38.476Z,3.99
2023-02-14T00:39:08.258Z,3.97
2023-02-14T00:41:38.713Z,4.03
2023-02-14T00:44:06.894Z,4.08
2023-02-14T00:46:35.130Z,3.96
2023-02-14T00:49:02.418Z,3.97
2023-02-14T00:51:30.024Z,4.02
2023-02-14T00:53:57.274Z,3.86
2023-02-14T00:56:24.504Z,3.83
2023-02-14T00:58:51.647Z,3.95
2023-02-14T01:01:19.977Z,4.00
2023-02-14T01:03:48.021Z,4.07
2023-02-14T01:06:15.705Z,3.99
2023-02-14T01:08:42.987Z,4.00
2023-02-14T01:11:15.200Z,4.05
2023-02-14T01:13:43.773Z,4.04
2023-02-14T01:16:14.899Z,4.01
2023-02-14T01:18:43.337Z,3.96
2023-02-14T01:21:20.961Z,3.86
2023-02-14T01:23:52.099Z,3.92
2023-02-14T01:26:21.428Z,3.78
2023-02-14T01:28:48.954Z,3.75
2023-02-14T01:31:28.885Z,3.65
2023-02-14T01:33:57.774Z,3.60
2023-02-14T01:36:35.501Z,3.52
2023-02-14T01:39:11.643Z,3.35
2023-02-14T01:41:41.618Z,3.20
2023-02-14T01:44:28.682Z,3.42
2023-02-14T01:46:57.557Z,3.54
2023-02-14T01:49:35.515Z,3.58
2023-02-14T01:52:41.820Z,3.43
2023-02-14T01:55:17.102Z,3.57
2023-02-14T01:58:11.174Z,3.49
2023-02-14T02:00:58.552Z,3.31
2023-02-14T02:03:42.317Z,3.21
2023-02-14T02:06:14.115Z,3.27
2023-02-14T02:08:57.612Z,3.18
2023-02-14T02:11:25.884Z,3.18
2023-02-14T02:13:53.051Z,3.05
2023-02-14T02:16:41.473Z,3.18
2023-02-14T02:19:51.564Z,3.37
2023-02-14T02:22:53.581Z,3.54
2023-02-14T02:26:26.176Z,3.39
2023-02-14T02:29:29.986Z,3.28
2023-02-14T02:32:21.050Z,3.26
2023-02-14T02:35:18.151Z,3.03
2023-02-14T02:38:08.069Z,3.12
2023-02-14T02:41:14.175Z,3.09
2023-02-14T02:44:10.598Z,3.06
2023-02-14T02:46:49.113Z,3.25
2023-02-14T02:49:52.365Z,3.22
2023-02-14T02:53:01.526Z,3.25
2023-02-14T02:55:59.862Z,3.03
2023-02-14T02:58:35.149Z,3.22
2023-02-14T03:01:10.684Z,3.29
2023-02-14T03:04:06.377Z,3.17
2023-02-14T03:06:34.532Z,3.24
2023-02-14T03:09:33.871Z,3.22
2023-02-14T03:12:00.981Z,3.17
2023-02-14T03:14:51.823Z,3.28
2023-02-14T03:17:56.149Z,3.27
2023-02-14T03:20:57.814Z,3.41
2023-02-14T03:23:43.979Z,3.31
2023-02-14T03:26:35.637Z,3.39
2023-02-14T03:29:08.610Z,3.46
2023-02-14T03:32:14.308Z,3.35
2023-02-14T03:35:12.266Z,3.39
2023-02-14T03:37:55.885Z,3.37
2023-02-14T03:40:34.863Z,3.26
2023-02-14T03:43:20.595Z,3.22
2023-02-14T03:46:12.159Z,3.17
2023-02-14T03:48:43.440Z,3.13
2023-02-14T03:51:13.935Z,3.02
2023-02-14T03:53:47.864Z,2.98
2023-02-14T03:56:52.074Z,3.15
2023-02-14T03:59:28.552Z,3.22
2023-02-14T04:02:12.195Z,3.03
2023-02-14T04:04:45.126Z,2.89
2023-02-14T04:07:16.210Z,3.13
2023-02-14T04:09:43.995Z,3.18
2023-02-14T04:12:12.039Z,3.01
2023-02-14T04:14:39.960Z,3.02
2023-02-14T04:17:26.640Z,3.09
2023-02-14T04:19:53.831Z,2.93
2023-02-14T04:22:21.249Z,2.94
2023-02-14T04:24:48.647Z,3.06
2023-02-14T04:27:15.809Z,2.97
2023-02-14T04:29:49.759Z,3.01
2023-02-14T04:32:21.995Z,3.12
2023-02-14T04:34:49.829Z,3.24
2023-02-14T04:37:19.614Z,3.02
2023-02-14T04:39:47.084Z,3.06
2023-02-14T04:42:14.521Z,3.06
2023-02-14T04:44:42.063Z,3.12
2023-02-14T04:47:09.884Z,3.07
2023-02-14T04:49:37.330Z,3.06
2023-02-14T04:52:05.739Z,2.94
2023-02-14T04:54:33.386Z,3.04
2023-02-14T04:57:00.669Z,3.03
2023-02-14T04:59:27.892Z,2.78
2023-02-14T05:01:55.275Z,2.74
2023-02-14T05:04:22.595Z,2.84
2023-02-14T05:06:49.764Z,2.89
2023-02-14T05:09:17.015Z,3.06
2023-02-14T05:11:44.279Z,2.91
2023-02-14T05:14:11.940Z,2.75
2023-02-14T05:16:39.383Z,2.65
2023-02-14T05:19:06.788Z,2.77
2023-02-14T05:21:34.407Z,2.77
2023-02-14T05:24:02.062Z,2.82
2023-02-14T05:26:29.779Z,2.88
2023-02-14T05:28:57.322Z,3.04
2023-02-14T05:31:24.715Z,2.99
2023-02-14T05:33:52.104Z,2.93
2023-02-14T05:36:19.267Z,2.81
2023-02-14T05:38:46.472Z,2.67
2023-02-14T05:41:13.761Z,2.70
2023-02-14T05:43:41.077Z,2.89
2023-02-14T05:46:08.416Z,2.92
2023-02-14T05:48:35.778Z,2.87
2023-02-14T05:51:09.166Z,2.76
2023-02-14T05:53:36.862Z,2.78
2023-02-14T05:56:05.226Z,2.66
2023-02-14T05:58:32.698Z,2.60
2023-02-14T06:01:00.841Z,2.67
2023-02-14T06:03:28.327Z,2.59
2023-02-14T06:05:55.575Z,2.67
2023-02-14T06:08:22.946Z,2.70
2023-02-14T06:10:50.236Z,2.56
2023-02-14T06:13:17.581Z,2.73
2023-02-14T06:15:44.826Z,2.80
2023-02-14T06:18:12.120Z,2.61
2023-02-14T06:20:39.364Z,2.66
2023-02-14T06:23:06.672Z,2.67
2023-02-14T06:25:33.960Z,2.87
2023-02-14T06:28:01.165Z,2.97
2023-02-14T06:30:28.763Z,3.00
2023-02-14T06:32:56.057Z,3.06
2023-02-14T06:35:23.265Z,2.99
2023-02-14T06:37:50.499Z,2.71
2023-02-14T06:40:19.732Z,2.72
2023-02-14T06:42:47.001Z,2.92
2023-02-14T06:45:14.333Z,2.91
2023-02-14T06:47:41.487Z,2.84
2023-02-14T06:50:11.817Z,2.94
2023-02-14T06:52:39.902Z,2.95
2023-02-14T06:55:07.764Z,2.92
2023-02-14T06:57:34.936Z,3.07
2023-02-14T07:00:02.369Z,3.08
2023-02-14T07:02:29.690Z,3.06
2023-02-14T07:04:56.998Z,3.09
2023-02-14T07:07:24.139Z,3.21
2023-02-14T07:09:52.112Z,2.99
2023-02-14T07:12:19.359Z,3.07
2023-02-14T07:14:46.713Z,3.25
2023-02-14T07:17:13.920Z,3.20
2023-02-14T07:19:41.128Z,3.02
2023-02-14T07:22:08.424Z,3.10
2023-02-14T07:24:35.624Z,3.22
2023-02-14T07:27:03.015Z,3.29
2023-02-14T07:29:30.314Z,3.08
2023-02-14T07:31:57.718Z,2.96
2023-02-14T07:34:25.078Z,3.12
2023-02-14T07:36:52.330Z,3.23
2023-02-14T07:39:19.657Z,3.31
2023-02-14T07:41:46.806Z,3.10
2023-02-14T07:44:19.609Z,2.98
2023-02-14T07:46:46.978Z,3.07
2023-02-14T07:49:14.156Z,3.16
2023-02-14T07:51:41.417Z,3.14
2023-02-14T07:54:08.700Z,3.03
2023-02-14T07:56:36.076Z,2.98
2023-02-14T07:59:03.478Z,2.94
2023-02-14T08:01:30.862Z,2.95
2023-02-14T08:03:58.092Z,2.91
2023-02-14T08:06:27.838Z,2.95
2023-02-14T08:08:55.114Z,2.96
2023-02-14T08:11:41.161Z,2.95
2023-02-14T08:14:08.487Z,2.89
2023-02-14T08:16:35.925Z,2.93
2023-02-14T08:19:03.280Z,3.03
2023-02-14T08:21:31.076Z,3.21
2023-02-14T08:23:58.541Z,3.35
2023-02-14T08:26:25.877Z,3.20
2023-02-14T08:28:53.251Z,3.14
2023-02-14T08:31:35.729Z,3.19
2023-02-14T08:34:05.631Z,3.23
2023-02-14T08:36:33.536Z,3.44
2023-02-14T08:39:01.781Z,3.45
2023-02-14T08:41:29.024Z,3.51
2023-02-14T08:43:56.177Z,3.60
2023-02-14T08:46:23.758Z,3.55
2023-02-14T08:48:51.828Z,3.59
2023-02-14T08:51:19.248Z,3.44
2023-02-14T08:53:46.491Z,3.38
2023-02-14T08:56:15.526Z,3.31
2023-02-14T08:58:43.082Z,3.42
2023-02-14T09:01:12.985Z,3.47
2023-02-14T09:03:40.410Z,3.33
2023-02-14T09:06:11.963Z,3.48
2023-02-14T09:08:39.915Z,3.41
2023-02-14T09:11:22.444Z,3.46
2023-02-14T09:13:53.220Z,3.81
2023-02-14T09:16:21.626Z,3.95
2023-02-14T09:18:49.970Z,3.97
2023-02-14T09:21:23.008Z,3.97
2023-02-14T09:23:50.463Z,3.80
2023-02-14T09:26:18.988Z,4.02
2023-02-14T09:28:47.627Z,4.15
2023-02-14T09:31:17.411Z,4.42
2023-02-14T09:34:05.344Z,4.38
2023-02-14T09:36:51.309Z,4.53
2023-02-14T09:39:18.656Z,4.85
2023-02-14T09:42:37.512Z,4.63
2023-02-14T09:45:22.596Z,4.62
2023-02-14T09:47:52.892Z,4.86
2023-02-14T09:50:43.096Z,4.56
2023-02-14T09:53:16.136Z,4.65
2023-02-14T09:56:12.365Z,4.86
2023-02-14T09:58:56.260Z,4.92
2023-02-14T10:01:43.479Z,5.19
2023-02-14T10:04:36.734Z,5.16
2023-02-14T10:07:32.006Z,5.46
2023-02-14T10:10:24.663Z,5.71
2023-02-14T10:13:20.851Z,5.50
2023-02-14T10:16:08.311Z,5.65
2023-02-14T10:18:57.647Z,5.63
2023-02-14T10:21:37.124Z,5.75
2023-02-14T10:24:23.134Z,5.55
2023-02-14T10:26:53.035Z,5.64
2023-02-14T10:29:21.074Z,5.67
2023-02-14T10:32:04.169Z,5.26
2023-02-14T10:34:52.025Z,5.20
2023-02-14T10:37:55.240Z,5.23
2023-02-14T10:41:00.054Z,5.50
2023-02-14T10:44:02.204Z,5.40
2023-02-14T10:47:15.781Z,5.34
2023-02-14T10:50:10.244Z,5.51
2023-02-14T10:53:20.571Z,5.58
2023-02-14T10:55:57.040Z,5.48
2023-02-14T10:58:29.252Z,5.58
2023-02-14T11:01:17.293Z,5.74
2023-02-14T11:04:06.639Z,5.76
2023-02-14T11:06:34.709Z,6.01
2023-02-14T11:09:01.932Z,5.93
2023-02-14T11:11:40.991Z,6.25
2023-02-14T11:14:36.532Z,6.27
2023-02-14T11:17:32.483Z,6.44
2023-02-14T11:20:25.667Z,6.63
2023-02-14T11:22:52.916Z,6.15
2023-02-14T11:25:25.187Z,5.68
2023-02-14T11:28:08.152Z,5.82
2023-02-14T11:30:45.881Z,5.72
2023-02-14T11:33:52.335Z,5.47
2023-02-14T11:36:19.964Z,5.75
2023-02-14T11:39:26.226Z,5.98
2023-02-14T11:41:57.099Z,5.91
2023-02-14T11:44:28.884Z,6.02
2023-02-14T11:47:15.968Z,6.15
2023-02-14T11:49:58.997Z,6.29
2023-02-14T11:52:29.697Z,6.27
2023-02-14T11:54:58.328Z,6.32
2023-02-14T11:57:38.205Z,6.48
2023-02-14T12:00:17.650Z,6.24
2023-02-14T12:02:50.656Z,6.25
2023-02-14T12:05:35.299Z,6.41
2023-02-14T12:08:06.311Z,6.57
2023-02-14T12:10:42.162Z,6.49
2023-02-14T12:13:09.327Z,6.53
2023-02-14T12:15:55.831Z,6.42
2023-02-14T12:18:50.597Z,6.67
2023-02-14T12:21:57.049Z,6.63
2023-02-14T12:25:03.036Z,6.76
2023-02-14T12:27:43.972Z,6.80
2023-02-14T12:30:22.235Z,6.60
2023-02-14T12:32:53.486Z,6.41
2023-02-14T12:35:55.650Z,6.28
2023-02-14T12:38:31.103Z,6.55
2023-02-14T12:41:12.555Z,6.32
2023-02-14T12:43:56.290Z,6.51
2023-02-14T12:46:51.536Z,6.58
2023-02-14T12:49:58.113Z,6.50
2023-02-14T12:53:08.239Z,6.51
2023-02-14T12:56:21.247Z,6.65
2023-02-14T12:59:24.298Z,6.51
2023-02-14T13:02:38.431Z,5.93
2023-02-14T13:05:47.468Z,6.12
2023-02-14T13:08:46.514Z,5.64
2023-02-14T13:11:46.493Z,5.39
2023-02-14T13:14:47.000Z,5.50
2023-02-14T13:17:35.398Z,5.61
2023-02-14T13:20:32.592Z,5.69
2023-02-14T13:23:11.925Z,5.61
2023-02-14T13:25:50.162Z,5.85
2023-02-14T13:28:19.542Z,5.92
2023-02-14T13:30:46.899Z,5.58
2023-02-14T13:33:25.047Z,5.61
2023-02-14T13:36:00.156Z,5.34
2023-02-14T13:38:31.719Z,5.39
2023-02-14T13:41:01.793Z,5.55
2023-02-14T13:44:08.296Z,5.75
2023-02-14T13:46:35.523Z,5.47
2023-02-14T13:49:31.778Z,5.55
2023-02-14T13:52:05.153Z,5.57
2023-02-14T13:54:48.070Z,5.66
2023-02-14T13:57:37.689Z,5.74
2023-02-14T14:00:20.263Z,5.81
2023-02-14T14:02:57.485Z,5.82
2023-02-14T14:05:33.519Z,5.89
2023-02-14T14:08:23.823Z,5.85
2023-02-14T14:10:57.624Z,5.84
2023-02-14T14:13:43.094Z,5.70
2023-02-14T14:16:28.133Z,5.51
2023-02-14T14:19:16.728Z,5.50
2023-02-14T14:22:00.061Z,5.60
2023-02-14T14:24:34.927Z,5.49
2023-02-14T14:27:19.853Z,5.26
2023-02-14T14:30:02.848Z,5.26
2023-02-14T14:32:36.973Z,5.28
2023-02-14T14:35:13.325Z,5.32
2023-02-14T14:37:52.753Z,5.27
2023-02-14T14:40:29.670Z,5.34
2023-02-14T14:43:07.464Z,5.30
2023-02-14T14:45:35.212Z,5.34
2023-02-14T14:48:12.784Z,5.20
2023-02-14T14:50:49.036Z,5.06
2023-02-14T14:53:35.482Z,5.04
2023-02-14T14:56:02.937Z,4.74
2023-02-14T14:58:41.889Z,4.98
2023-02-14T15:01:27.187Z,4.91
2023-02-14T15:03:55.769Z,4.76
2023-02-14T15:06:23.323Z,4.74
2023-02-14T15:08:51.515Z,4.87
2023-02-14T15:11:46.161Z,5.00
2023-02-14T15:14:24.559Z,4.98
2023-02-14T15:16:59.263Z,4.95
2023-02-14T15:19:54.259Z,5.00
2023-02-14T15:22:36.332Z,4.93
2023-02-14T15:25:22.798Z,4.81
2023-02-14T15:27:50.642Z,4.82
2023-02-14T15:30:23.635Z,4.68
2023-02-14T15:32:52.653Z,4.81
2023-02-14T15:35:34.094Z,4.73
2023-02-14T15:38:05.757Z,4.71
2023-02-14T15:40:35.799Z,4.74
2023-02-14T15:43:27.882Z,4.67
2023-02-14T15:46:14.415Z,4.65
2023-02-14T15:48:42.133Z,4.65
2023-02-14T15:51:29.361Z,4.69
2023-02-14T15:53:59.500Z,4.51
2023-02-14T15:56:43.144Z,4.54
2023-02-14T15:59:19.405Z,4.48
2023-02-14T16:02:03.378Z,4.46
2023-02-14T16:04:35.573Z,4.37
2023-02-14T16:07:27.818Z,4.26
2023-02-14T16:10:22.888Z,4.25
2023-02-14T16:13:03.101Z,4.02
2023-02-14T16:15:36.723Z,4.17
2023-02-14T16:18:17.128Z,4.19
2023-02-14T16:20:51.190Z,4.23
2023-02-14T16:23:21.592Z,4.14
2023-02-14T16:25:50.169Z,4.11
2023-02-14T16:28:17.978Z,3.94
2023-02-14T16:30:47.932Z,4.07
2023-02-14T16:33:23.236Z,4.08
2023-02-14T16:35:51.271Z,4.06
2023-02-14T16:38:21.077Z,4.12
2023-02-14T16:40:52.350Z,4.13
2023-02-14T16:43:21.348Z,4.11
2023-02-14T16:45:49.319Z,4.21
2023-02-14T16:48:16.708Z,4.26
2023-02-14T16:50:44.962Z,4.23
2023-02-14T16:53:27.485Z,4.17
2023-02-14T16:55:57.317Z,4.20
2023-02-14T16:58:33.720Z,4.17
2023-02-14T17:01:01.402Z,4.19
2023-02-14T17:03:29.072Z,4.19
2023-02-14T17:05:58.529Z,4.25
2023-02-14T17:08:26.224Z,4.20
2023-02-14T17:10:56.712Z,4.12
2023-02-14T17:13:27.219Z,4.11
2023-02-14T17:15:56.145Z,4.14
2023-02-14T17:18:24.953Z,4.10
2023-02-14T17:20:52.664Z,4.17
2023-02-14T17:23:20.952Z,4.20
2023-02-14T17:25:48.388Z,4.25
2023-02-14T17:28:15.557Z,4.29
2023-02-14T17:30:42.891Z,4.31
2023-02-14T17:33:10.355Z,4.13
2023-02-14T17:35:38.617Z,4.20
2023-02-14T17:38:05.823Z,4.19
2023-02-14T17:40:33.227Z,4.18
2023-02-14T17:43:01.290Z,4.13
2023-02-14T17:45:28.642Z,4.14
2023-02-14T17:47:55.989Z,4.11
2023-02-14T17:50:23.327Z,4.07
2023-02-14T17:52:57.669Z,4.06
2023-02-14T17:55:25.149Z,4.12
2023-02-14T17:57:52.692Z,4.07
2023-02-14T18:00:24.357Z,4.10
2023-02-14T18:02:51.712Z,4.11
2023-02-14T18:05:19.021Z,4.07
2023-02-14T18:07:46.227Z,4.03
2023-02-14T18:10:13.453Z,4.07
2023-02-14T18:12:41.307Z,4.07
2023-02-14T18:15:09.335Z,4.07
2023-02-14T18:17:36.637Z,4.13
2023-02-14T18:20:05.487Z,4.10
2023-02-14T18:22:32.716Z,4.11
2023-02-14T18:24:59.985Z,4.18
2023-02-14T18:27:27.537Z,4.24
2023-02-14T18:29:54.811Z,4.14
2023-02-14T18:32:22.085Z,3.92
2023-02-14T18:34:49.439Z,3.94
2023-02-14T18:37:16.814Z,3.90
2023-02-14T18:39:44.461Z,3.91
2023-02-14T18:42:11.671Z,3.91
2023-02-14T18:44:39.021Z,3.88
2023-02-14T18:47:08.867Z,3.76
2023-02-14T18:49:36.245Z,3.82
2023-02-14T18:52:04.990Z,3.85
2023-02-14T18:54:32.335Z,3.94
2023-02-14T18:56:59.601Z,3.94
2023-02-14T18:59:27.012Z,4.01
2023-02-14T19:01:54.333Z,4.04
2023-02-14T19:04:21.752Z,3.92
2023-02-14T19:06:49.567Z,3.93
2023-02-14T19:09:18.663Z,3.90
2023-02-14T19:11:46.538Z,3.93
2023-02-14T19:14:13.947Z,4.00
2023-02-14T19:16:50.207Z,4.05
2023-02-14T19:19:18.078Z,3.96
2023-02-14T19:21:45.851Z,3.87
2023-02-14T19:24:14.663Z,3.81
2023-02-14T19:26:42.743Z,3.75
2023-02-14T19:29:16.479Z,3.77
2023-02-14T19:31:48.233Z,3.80
2023-02-14T19:34:28.934Z,3.71
2023-02-14T19:36:59.872Z,3.78
2023-02-14T19:39:31.666Z,3.88
2023-02-14T19:42:00.588Z,3.93
2023-02-14T19:44:29.404Z,3.90
2023-02-14T19:47:00.170Z,3.84
2023-02-14T19:49:29.438Z,3.90
2023-02-14T19:51:57.827Z,3.90
2023-02-14T19:54:25.799Z,3.94
2023-02-14T19:56:56.158Z,3.87
2023-02-14T19:59:23.619Z,3.86
2023-02-14T20:01:55.649Z,3.93
2023-02-14T20:04:27.603Z,3.95
2023-02-14T20:06:56.097Z,3.97
2023-02-14T20:09:25.678Z,3.87
2023-02-14T20:11:56.597Z,3.86
2023-02-14T20:14:29.294Z,3.68
2023-02-14T20:16:59.734Z,3.57
2023-02-14T20:19:32.214Z,3.57
2023-02-14T20:22:00.599Z,3.61
2023-02-14T20:24:32.227Z,3.63
2023-02-14T20:27:03.383Z,3.67
2023-02-14T20:29:30.742Z,3.77
2023-02-14T20:32:00.259Z,3.81
2023-02-14T20:34:27.880Z,3.79
2023-02-14T20:36:56.073Z,3.75
2023-02-14T20:39:32.974Z,3.72
2023-02-14T20:42:01.369Z,3.71
2023-02-14T20:44:29.001Z,3.64
2023-02-14T20:46:57.249Z,3.67
2023-02-14T20:49:27.553Z,3.64
2023-02-14T20:51:56.117Z,3.74
2023-02-14T20:54:26.150Z,3.65
2023-02-14T20:56:53.413Z,3.66
2023-02-14T20:59:27.209Z,3.76
2023-02-14T21:01:59.260Z,3.68
2023-02-14T21:04:26.941Z,3.63
2023-02-14T21:06:54.662Z,3.61
2023-02-14T21:09:21.962Z,3.56
2023-02-14T21:11:50.372Z,3.37
2023-02-14T21:14:17.723Z,3.48
2023-02-14T21:16:44.970Z,3.49
2023-02-14T21:19:12.225Z,3.49
2023-02-14T21:21:39.854Z,3.44
2023-02-14T21:24:11.210Z,3.49
2023-02-14T21:26:39.342Z,3.35
2023-02-14T21:29:07.194Z,3.37
2023-02-14T21:31:35.093Z,3.45
2023-02-14T21:34:03.463Z,3.32
2023-02-14T21:36:36.048Z,3.32
2023-02-14T21:39:04.940Z,3.28
2023-02-14T21:41:33.167Z,3.25
2023-02-14T21:44:01.974Z,3.35
2023-02-14T21:46:32.709Z,3.29
2023-02-14T21:49:23.979Z,3.14
2023-02-14T21:51:51.616Z,3.27
2023-02-14T21:54:19.040Z,3.20
2023-02-14T21:56:46.389Z,3.34
2023-02-14T21:59:13.908Z,3.28
2023-02-14T22:01:43.054Z,3.22
2023-02-14T22:04:12.652Z,3.27
2023-02-14T22:06:41.992Z,3.38
2023-02-14T22:09:17.458Z,3.27
2023-02-14T22:11:48.800Z,3.25
2023-02-14T22:14:16.516Z,3.42
2023-02-14T22:16:43.776Z,3.37
2023-02-14T22:19:15.605Z,3.46
2023-02-14T22:21:43.758Z,3.45
2023-02-14T22:24:10.984Z,3.43
2023-02-14T22:26:39.541Z,3.39
2023-02-14T22:29:09.654Z,3.30
2023-02-14T22:31:41.270Z,3.25
2023-02-14T22:34:11.841Z,3.29
2023-02-14T22:36:39.129Z,3.32
2023-02-14T22:39:06.973Z,3.27
2023-02-14T22:41:37.805Z,3.26
2023-02-14T22:44:06.269Z,3.22
2023-02-14T22:46:36.835Z,3.20
2023-02-14T22:49:05.576Z,3.11
2023-02-14T22:51:35.804Z,3.22
2023-02-14T22:54:07.367Z,3.16
2023-02-14T22:56:41.350Z,3.00
2023-02-14T22:59:17.992Z,3.12
2023-02-14T23:01:46.469Z,3.15
2023-02-14T23:04:15.514Z,3.13
2023-02-14T23:06:43.283Z,3.02
2023-02-14T23:09:12.279Z,2.97
2023-02-14T23:11:42.099Z,2.97
2023-02-14T23:14:34.099Z,2.92
2023-02-14T23:17:14.554Z,2.92
2023-02-14T23:20:00.899Z,2.92
2023-02-14T23:22:35.730Z,3.01
2023-02-14T23:25:07.126Z,2.91
2023-02-14T23:27:41.907Z,2.71
2023-02-14T23:30:15.971Z,2.61
2023-02-14T23:32:44.905Z,2.45
2023-02-14T23:35:12.448Z,2.44
2023-02-14T23:37:40.219Z,2.38
2023-02-14T23:40:08.404Z,2.32
2023-02-14T23:42:35.596Z,2.20
2023-02-14T23:45:21.781Z,2.12
2023-02-14T23:47:49.048Z,2.00
2023-02-14T23:50:16.473Z,1.84
2023-02-14T23:52:44.663Z,1.63
2023-02-14T23:55:12.685Z,1.56
2023-02-14T23:57:39.998Z,1.49
